Time;durP1;ratioP1;P1;durP2;ratioP2;P2;SDS_P1;SDS_P2;PMS_P1;PMS_P2;Temp;Humidity;BMP_temperature;BMP_pressure;BME280_temperature;BME280_humidity;BME280_pressure;Samples;Min_cycle;Max_cycle;Signal;HPM_P1;HPM_P2
2022/11/28 00:02:08;;;;;;;6.70;6.20;;;;;;;21.52;36.98;95601.06;6236219;27;103928;-63
2022/11/28 00:05:13;;;;;;;6.43;5.93;;;;;;;21.51;36.75;95607.47;6225687;27;103644;-67
2022/11/28 00:08:16;;;;;;;6.80;6.20;;;;;;;21.49;36.60;95605.06;6235326;27;104271;-66
2022/11/28 00:11:20;;;;;;;6.73;6.13;;;;;;;21.47;36.60;95607.22;6237446;28;107171;-64
2022/11/28 00:14:23;;;;;;;6.90;6.40;;;;;;;21.45;36.59;95595.28;6236436;27;103903;-64
2022/11/28 00:17:26;;;;;;;7.00;6.40;;;;;;;21.44;36.41;95593.72;6225995;27;103862;-65
2022/11/28 00:20:32;;;;;;;6.27;5.80;;;;;;;21.44;36.84;95591.03;6236555;27;103948;-63
2022/11/28 00:23:36;;;;;;;6.90;6.30;;;;;;;21.37;36.74;95594.06;6236332;28;103931;-64
2022/11/28 00:26:41;;;;;;;6.30;5.80;;;;;;;21.37;36.55;95590.63;6236890;27;104886;-64
2022/11/28 00:29:44;;;;;;;6.03;5.53;;;;;;;21.42;36.36;95599.31;6225687;28;103731;-64
2022/11/28 00:32:47;;;;;;;6.20;5.70;;;;;;;21.38;36.43;95593.00;6236593;28;103617;-64
2022/11/28 00:35:57;;;;;;;6.13;5.63;;;;;;;21.40;36.27;95592.72;6236818;27;103769;-63
2022/11/28 00:39:00;;;;;;;6.23;5.73;;;;;;;21.37;36.28;95591.41;6230736;27;103911;-65
2022/11/28 00:42:03;;;;;;;5.77;5.27;;;;;;;21.37;36.42;95593.28;6232096;28;103790;-63
2022/11/28 00:45:08;;;;;;;5.10;4.70;;;;;;;21.39;36.54;95589.25;6236859;27;103929;-64
2022/11/28 00:48:11;;;;;;;5.80;5.40;;;;;;;21.31;36.46;95589.88;6236319;28;103847;-65
2022/11/28 00:51:17;;;;;;;5.50;5.10;;;;;;;21.37;36.50;95591.41;6224839;27;103993;-65
2022/11/28 00:54:20;;;;;;;4.77;4.40;;;;;;;21.38;36.37;95594.88;6236063;28;104143;-65
2022/11/28 00:57:23;;;;;;;5.37;4.93;;;;;;;21.39;36.35;95591.91;6236579;28;105754;-65
2022/11/28 01:00:26;;;;;;;6.23;4.80;;;;;;;21.39;36.38;95596.44;6235681;27;103896;-63
2022/11/28 01:03:29;;;;;;;5.07;4.57;;;;;;;21.38;36.16;95593.00;6224735;27;103761;-64
2022/11/28 01:06:38;;;;;;;4.87;4.47;;;;;;;21.39;36.39;95586.59;6236210;27;103966;-64
2022/11/28 01:09:41;;;;;;;5.23;4.83;;;;;;;21.40;35.90;95585.50;6236144;28;105864;-63
2022/11/28 01:12:44;;;;;;;5.57;5.07;;;;;;;21.37;36.22;95590.63;6235646;27;103747;-64
2022/11/28 01:15:47;;;;;;;4.33;3.93;;;;;;;21.40;35.69;95587.38;6224683;27;103832;-64
2022/11/28 01:18:51;;;;;;;4.80;4.40;;;;;;;21.32;35.70;95575.50;6234141;28;103734;-65
2022/11/28 01:21:55;;;;;;;5.00;4.60;;;;;;;21.39;36.19;95575.94;6235123;28;103488;-63
2022/11/28 01:24:58;;;;;;;5.33;4.93;;;;;;;21.36;35.75;95581.84;6229942;28;104069;-62
2022/11/28 01:28:01;;;;;;;4.60;4.30;;;;;;;21.37;35.80;95582.63;6231269;28;108124;-63
2022/11/28 01:31:06;;;;;;;5.10;4.70;;;;;;;21.39;35.58;95575.16;6235004;27;103750;-63
2022/11/28 01:34:09;;;;;;;4.70;4.40;;;;;;;21.41;35.57;95576.44;6235207;28;103371;-64
2022/11/28 01:37:14;;;;;;;4.63;4.23;;;;;;;21.36;35.77;95571.19;6206696;28;103832;-63
2022/11/28 01:40:17;;;;;;;4.20;3.90;;;;;;;21.36;35.95;95570.41;6235153;27;103688;-62
2022/11/28 01:43:21;;;;;;;4.63;4.23;;;;;;;21.38;35.48;95569.03;6235875;27;103670;-62
2022/11/28 01:46:24;;;;;;;4.33;3.93;;;;;;;21.38;35.94;95569.03;6235077;27;104312;-63
2022/11/28 01:49:30;;;;;;;4.87;4.47;;;;;;;21.38;35.54;95569.03;6222833;28;106630;-63
2022/11/28 01:52:37;;;;;;;4.37;4.07;;;;;;;21.38;35.97;95563.72;6233633;27;104000;-63
2022/11/28 01:55:48;;;;;;;4.47;4.17;;;;;;;21.38;35.87;95565.59;6235090;27;104057;-64
2022/11/28 01:58:58;;;;;;;4.70;4.40;;;;;;;21.35;35.62;95553.63;6235041;28;104133;-64
2022/11/28 02:02:02;;;;;;;4.30;4.00;;;;;;;21.36;35.61;95557.09;6224247;28;106836;-64
2022/11/28 02:05:06;;;;;;;4.23;3.83;;;;;;;21.33;35.54;95563.75;6228116;27;103989;-62
2022/11/28 02:08:10;;;;;;;4.37;3.97;;;;;;;21.33;35.65;95554.97;6234408;27;104265;-63
2022/11/28 02:11:42;;;;;;;4.07;3.77;;;;;;;21.33;35.64;95550.44;6229770;28;104344;-62
2022/11/28 02:15:03;;;;;;;4.17;3.87;;;;;;;21.33;35.51;95554.97;6234005;27;103792;-65
2022/11/28 02:18:21;;;;;;;4.40;4.10;;;;;;;21.35;35.50;95545.66;6234603;28;103763;-64
2022/11/28 02:21:38;;;;;;;3.97;3.67;;;;;;;21.26;35.48;95533.28;6230556;28;103522;-64
2022/11/28 02:25:19;;;;;;;3.60;3.40;;;;;;;21.34;35.36;95548.56;6221346;27;104275;-64
2022/11/28 02:28:52;;;;;;;3.63;3.33;;;;;;;21.35;35.46;95547.53;6227518;28;103551;-64
2022/11/28 02:32:14;;;;;;;3.90;3.60;;;;;;;21.35;35.29;95547.53;6224642;28;104189;-68
2022/11/28 02:35:22;;;;;;;3.43;3.23;;;;;;;21.32;35.37;95537.44;6225465;27;104017;-68
2022/11/28 02:38:39;;;;;;;4.00;3.70;;;;;;;21.34;35.44;95544.06;6238330;27;107023;-68
2022/11/28 02:41:47;;;;;;;3.83;3.60;;;;;;;21.14;35.41;95515.06;6238079;27;103874;-67
2022/11/28 02:44:55;;;;;;;4.13;3.83;;;;;;;21.33;35.24;95545.13;6237984;27;103919;-68
2022/11/28 02:48:04;;;;;;;3.60;3.30;;;;;;;21.33;35.50;95542.47;6226868;27;103696;-68
2022/11/28 02:51:13;;;;;;;3.73;3.43;;;;;;;21.32;35.55;95542.75;6237612;27;103784;-64
2022/11/28 02:54:18;;;;;;;3.90;3.60;;;;;;;21.33;35.52;95547.78;6237507;27;103977;-64
2022/11/28 02:57:21;;;;;;;3.67;3.47;;;;;;;21.34;35.37;95551.25;6231494;27;103934;-62
2022/11/28 03:00:29;;;;;;;3.20;3.00;;;;;;;21.35;35.10;95552.84;6231548;28;104992;-63
2022/11/28 03:03:48;;;;;;;3.07;2.87;;;;;;;21.32;35.25;95551.53;6237726;28;103740;-63
2022/11/28 03:07:01;;;;;;;3.73;3.43;;;;;;;21.33;35.28;95549.66;6236729;27;103819;-63
2022/11/28 03:10:14;;;;;;;3.43;3.13;;;;;;;21.27;35.12;95545.50;6228408;27;106546;-63
2022/11/28 03:13:24;;;;;;;3.50;3.20;;;;;;;21.26;35.32;95539.38;6237199;27;103826;-65
2022/11/28 03:16:31;;;;;;;3.50;3.20;;;;;;;21.31;35.18;95549.94;6236804;27;104057;-65
2022/11/28 03:19:39;;;;;;;3.33;3.13;;;;;;;21.32;35.34;95553.41;6237185;28;104042;-63
2022/11/28 03:22:50;;;;;;;3.50;3.20;;;;;;;21.30;35.39;95548.38;6178925;27;1294885;-64
2022/11/28 03:25:58;;;;;;;2.97;2.77;;;;;;;21.30;35.00;95550.25;6237876;27;103964;-65
2022/11/28 03:29:07;;;;;;;3.20;3.00;;;;;;;21.32;35.36;95554.19;6237516;28;103678;-64
2022/11/28 03:32:16;;;;;;;2.83;2.63;;;;;;;21.31;35.23;95549.94;6227897;27;104528;-65
2022/11/28 03:35:24;;;;;;;2.67;2.53;;;;;;;21.31;35.38;95557.16;6236233;27;104354;-65
2022/11/28 03:38:31;;;;;;;3.00;2.80;;;;;;;21.30;35.45;95561.69;6234659;28;103796;-63
2022/11/28 03:41:39;;;;;;;2.83;2.63;;;;;;;21.31;35.20;95552.59;6237109;27;104029;-63
2022/11/28 03:44:48;;;;;;;3.20;3.00;;;;;;;21.32;35.19;95558.72;6225897;28;104027;-64
2022/11/28 03:47:57;;;;;;;2.53;2.33;;;;;;;21.27;35.61;95554.28;6238183;28;103556;-63
2022/11/28 03:51:07;;;;;;;3.13;2.93;;;;;;;21.25;35.17;95545.00;6237110;28;103911;-63
2022/11/28 03:54:15;;;;;;;2.93;2.73;;;;;;;21.20;35.18;95529.91;6237430;28;103731;-63
2022/11/28 03:57:22;;;;;;;3.23;2.80;;;;;;;21.32;35.01;95551.53;6226403;27;103836;-63
2022/11/28 04:00:26;;;;;;;2.93;2.73;;;;;;;21.31;34.66;95552.59;6234156;27;103779;-63
2022/11/28 04:03:38;;;;;;;2.70;2.50;;;;;;;21.33;35.03;95554.97;6234241;28;103922;-65
2022/11/28 04:06:53;;;;;;;2.60;2.40;;;;;;;21.31;35.19;95547.28;6228659;27;103530;-64
2022/11/28 04:10:03;;;;;;;3.30;3.00;;;;;;;21.33;34.67;95547.00;6229447;28;105765;-64
2022/11/28 04:13:15;;;;;;;2.27;2.07;;;;;;;21.30;35.29;95548.38;6236884;28;103716;-63
2022/11/28 04:16:22;;;;;;;2.47;2.27;;;;;;;21.31;35.26;95551.81;6236496;27;103855;-64
2022/11/28 04:19:31;;;;;;;2.20;2.10;;;;;;;21.30;35.08;95544.91;6226137;27;103672;-63
2022/11/28 04:22:41;;;;;;;2.30;2.10;;;;;;;21.30;35.61;95547.56;6237149;28;103617;-64
2022/11/28 04:25:50;;;;;;;2.80;2.60;;;;;;;21.29;35.42;95559.31;6236896;27;103887;-64
2022/11/28 04:28:56;;;;;;;2.40;2.23;;;;;;;21.27;35.57;95554.28;6236333;27;103604;-64
2022/11/28 04:32:02;;;;;;;2.63;2.43;;;;;;;21.26;35.57;95557.22;6224149;28;103792;-66
2022/11/28 04:35:09;;;;;;;2.57;2.37;;;;;;;21.19;35.89;95547.75;6234926;28;106528;-66
2022/11/28 04:38:14;;;;;;;3.30;3.10;;;;;;;21.22;35.69;95551.69;6235658;28;103366;-65
2022/11/28 04:41:22;;;;;;;3.07;2.83;;;;;;;21.26;36.02;95566.00;6228865;27;103786;-66
2022/11/28 04:44:29;;;;;;;4.00;2.90;;;;;;;21.24;35.93;95562.84;6232425;27;103995;-66
2022/11/28 04:47:33;;;;;;;2.30;1.97;;;;;;;21.00;34.35;95562.84;6236661;27;103755;-67
2022/11/28 04:50:50;;;;;;;1.90;1.80;;;;;;;20.91;34.12;95554.72;6236199;27;103863;-67
2022/11/28 04:54:01;;;;;;;1.87;1.77;;;;;;;20.85;33.80;95568.38;6200013;28;106335;-66
2022/11/28 04:57:13;;;;;;;1.90;1.80;;;;;;;21.02;33.81;95565.25;6223740;28;103556;-65
2022/11/28 05:00:19;;;;;;;2.47;1.70;;;;;;;21.17;33.83;95563.22;6231363;27;103888;-66
2022/11/28 05:03:27;;;;;;;1.87;1.77;;;;;;;21.23;33.99;95566.56;6233312;28;103701;-66
2022/11/28 05:06:32;;;;;;;3.10;2.10;;;;;;;21.31;34.45;95560.59;6222617;28;103874;-68
2022/11/28 05:09:37;;;;;;;4.10;2.10;;;;;;;21.43;34.61;95566.28;6223471;27;104124;-67
2022/11/28 05:12:40;;;;;;;4.13;1.70;;;;;;;21.46;34.93;95567.56;6224928;27;104212;-67
2022/11/28 05:15:43;;;;;;;1.73;1.63;;;;;;;21.46;34.73;95568.38;6229709;27;103761;-65
2022/11/28 05:18:46;;;;;;;3.53;1.63;;;;;;;21.01;34.25;95567.09;6229261;27;103535;-63
2022/11/28 05:21:51;;;;;;;6.20;2.23;;;;;;;21.23;35.69;95565.78;6235368;28;103662;-63
2022/11/28 05:24:56;;;;;;;4.03;1.70;;;;;;;21.31;35.02;95562.47;6235074;28;107012;-63
2022/11/28 05:27:59;;;;;;;4.33;1.73;;;;;;;21.34;34.58;95556.56;6224922;27;103798;-63
2022/11/28 05:31:03;;;;;;;3.77;2.57;;;;;;;21.36;34.79;95554.44;6235995;27;103889;-62
2022/11/28 05:34:06;;;;;;;5.33;4.17;;;;;;;21.32;34.74;95566.72;6234537;27;107058;-62
2022/11/28 05:37:09;;;;;;;6.80;5.80;;;;;;;21.16;35.20;95539.50;6235956;27;103862;-63
2022/11/28 05:40:14;;;;;;;6.53;5.93;;;;;;;21.23;34.86;95550.59;6225245;27;103835;-63
2022/11/28 05:43:17;;;;;;;7.97;7.20;;;;;;;21.20;34.96;95556.50;6235104;27;103756;-63
2022/11/28 05:46:20;;;;;;;7.63;6.93;;;;;;;21.21;35.37;95555.44;6235964;28;104960;-63
2022/11/28 05:49:24;;;;;;;9.73;7.37;;;;;;;21.20;35.26;95553.84;6233630;27;103951;-65
2022/11/28 05:52:31;;;;;;;14.53;7.93;;;;;;;21.23;35.14;95560.47;6229035;28;104017;-63
2022/11/28 05:55:36;;;;;;;8.67;7.87;;;;;;;21.23;35.42;95558.59;6235860;27;103781;-63
2022/11/28 05:58:40;;;;;;;8.77;7.97;;;;;;;21.23;35.00;95555.94;6235160;28;104231;-64
2022/11/28 06:01:43;;;;;;;9.10;8.30;;;;;;;21.22;34.91;95554.34;6224914;27;103854;-63
2022/11/28 06:04:46;;;;;;;10.50;9.60;;;;;;;21.20;34.72;95557.31;6233279;28;103539;-64
2022/11/28 06:07:49;;;;;;;12.20;11.13;;;;;;;21.17;35.28;95549.91;6234996;27;103609;-62
2022/11/28 06:10:57;;;;;;;11.10;9.80;;;;;;;21.19;35.33;95554.94;6235169;27;103675;-62
2022/11/28 06:14:01;;;;;;;12.23;11.13;;;;;;;21.13;35.50;95545.41;6223364;27;103984;-63
2022/11/28 06:17:04;;;;;;;12.77;11.60;;;;;;;21.14;35.71;95547.78;6235184;27;103977;-62
2022/11/28 06:20:08;;;;;;;11.77;10.67;;;;;;;21.14;35.63;95552.31;6234359;27;103839;-64
2022/11/28 06:23:11;;;;;;;15.40;13.90;;;;;;;21.14;35.43;95549.66;6234589;28;103537;-63
2022/11/28 06:26:21;;;;;;;14.60;13.30;;;;;;;21.15;35.55;95552.03;6223757;27;103867;-63
2022/11/28 06:29:24;;;;;;;14.83;13.63;;;;;;;21.15;35.12;95554.69;6234889;27;103510;-62
2022/11/28 06:32:27;;;;;;;15.97;14.53;;;;;;;21.12;35.68;95555.25;6235181;27;104860;-63
2022/11/28 06:35:30;;;;;;;16.37;14.97;;;;;;;21.12;35.54;95551.81;6225830;27;103844;-63
2022/11/28 06:38:33;;;;;;;16.10;14.70;;;;;;;21.10;35.26;95543.34;6232895;27;104418;-65
2022/11/28 06:41:38;;;;;;;15.60;14.20;;;;;;;21.11;35.49;95550.22;6234461;27;103918;-64
2022/11/28 06:44:41;;;;;;;17.83;16.23;;;;;;;21.11;35.38;95542.25;6234903;28;106358;-64
2022/11/28 06:47:44;;;;;;;16.50;15.00;;;;;;;21.12;35.37;95546.50;6224602;28;103601;-65
2022/11/28 06:50:47;;;;;;;15.60;14.13;;;;;;;21.11;35.37;95535.06;6233914;27;103795;-64
2022/11/28 06:53:51;;;;;;;16.37;14.87;;;;;;;21.10;35.56;95535.34;6234699;28;103721;-64
2022/11/28 06:56:55;;;;;;;15.43;14.13;;;;;;;21.11;35.33;95539.59;6234620;27;103851;-64
2022/11/28 06:59:58;;;;;;;16.10;14.70;;;;;;;21.09;35.93;95539.09;6224300;27;104578;-64
2022/11/28 07:03:01;;;;;;;15.30;14.00;;;;;;;21.09;35.62;95542.53;6233700;27;103999;-64
2022/11/28 07:06:05;;;;;;;17.63;16.07;;;;;;;21.08;35.71;95537.50;6233184;27;104273;-65
2022/11/28 07:09:09;;;;;;;17.67;16.07;;;;;;;21.08;35.52;95542.81;6229341;27;104156;-63
2022/11/28 07:12:13;;;;;;;17.37;15.80;;;;;;;21.10;35.53;95551.31;6228372;27;103936;-67
2022/11/28 07:15:16;;;;;;;17.60;16.00;;;;;;;21.09;35.51;95547.06;6234864;27;103784;-64
2022/11/28 07:18:20;;;;;;;18.20;16.60;;;;;;;21.07;35.75;95541.25;6238141;27;103889;-66
2022/11/28 07:21:23;;;;;;;16.37;14.87;;;;;;;21.03;35.26;95534.91;6228542;27;103813;-64
2022/11/28 07:24:26;;;;;;;17.93;16.33;;;;;;;21.06;35.60;95539.66;6237321;27;103808;-65
2022/11/28 07:27:31;;;;;;;15.83;14.43;;;;;;;21.01;35.72;95531.72;6238585;27;103446;-64
2022/11/28 07:30:34;;;;;;;16.40;15.00;;;;;;;21.06;35.43;95534.34;6238314;27;103743;-68
2022/11/28 07:33:37;;;;;;;16.97;15.47;;;;;;;21.05;35.70;95536.22;6226810;27;103942;-65
2022/11/28 07:36:40;;;;;;;17.03;15.50;;;;;;;21.05;35.83;95530.91;6237014;27;103942;-63
2022/11/28 07:39:44;;;;;;;16.33;14.73;;;;;;;21.04;35.74;95537.25;6238352;27;103804;-64
2022/11/28 07:42:48;;;;;;;17.33;15.83;;;;;;;20.97;35.60;95526.16;6237999;27;103723;-63
2022/11/28 07:45:52;;;;;;;16.47;14.97;;;;;;;21.08;35.70;95535.63;6226932;27;103933;-64
2022/11/28 07:49:04;;;;;;;16.33;14.93;;;;;;;21.07;35.98;95547.34;6237642;27;103792;-64
2022/11/28 07:52:07;;;;;;;16.10;14.80;;;;;;;21.01;35.50;95531.72;6237989;27;103804;-64
2022/11/28 07:55:10;;;;;;;15.83;14.53;;;;;;;21.03;35.79;95538.34;6226719;27;103803;-64
2022/11/28 07:58:14;;;;;;;15.87;14.50;;;;;;;21.03;35.69;95540.22;6237349;27;103864;-65
2022/11/28 08:01:20;;;;;;;16.20;14.80;;;;;;;21.05;35.81;95532.75;6237473;27;103747;-63
2022/11/28 08:04:23;;;;;;;16.17;14.77;;;;;;;21.03;35.59;95532.22;6236891;27;103717;-63
2022/11/28 08:07:26;;;;;;;16.20;14.80;;;;;;;21.04;35.45;95531.94;6225432;27;103766;-64
2022/11/28 08:10:29;;;;;;;15.30;14.00;;;;;;;21.03;35.63;95535.69;6236987;27;103730;-63
2022/11/28 08:13:34;;;;;;;15.47;14.13;;;;;;;21.03;35.74;95537.56;6237683;27;105147;-65
2022/11/28 08:16:40;;;;;;;16.40;15.00;;;;;;;21.03;35.99;95534.91;6236752;27;103893;-63
2022/11/28 08:19:43;;;;;;;16.50;15.00;;;;;;;21.03;35.58;95534.91;6225949;27;103752;-63
2022/11/28 08:22:46;;;;;;;17.50;15.93;;;;;;;20.92;35.88;95516.38;6236966;27;103697;-64
2022/11/28 08:25:49;;;;;;;17.47;15.97;;;;;;;21.00;35.71;95524.81;6236149;27;103741;-64
2022/11/28 08:28:53;;;;;;;18.67;17.00;;;;;;;21.00;35.57;95525.59;6230825;27;103985;-64
2022/11/28 08:31:57;;;;;;;17.07;15.60;;;;;;;21.01;35.67;95527.19;6231062;27;103688;-63
2022/11/28 08:35:00;;;;;;;18.10;16.50;;;;;;;21.03;35.81;95524.25;6237024;28;103529;-64
2022/11/28 08:38:03;;;;;;;17.80;16.20;;;;;;;21.01;35.92;95527.19;6236180;27;104043;-64
2022/11/28 08:41:09;;;;;;;17.33;15.83;;;;;;;21.03;35.82;95524.25;6225899;27;104907;-64
2022/11/28 08:44:15;;;;;;;17.43;16.03;;;;;;;20.97;35.71;95522.72;6236731;27;104135;-66
2022/11/28 08:47:18;;;;;;;18.20;16.60;;;;;;;21.03;35.67;95521.59;6236358;27;103545;-63
2022/11/28 08:50:21;;;;;;;16.83;15.43;;;;;;;21.02;35.54;95517.34;6236608;27;103507;-63
2022/11/28 08:53:24;;;;;;;18.07;16.40;;;;;;;20.97;35.50;95515.53;6226531;27;103502;-62
2022/11/28 08:56:27;;;;;;;17.00;15.60;;;;;;;20.99;35.79;95508.03;6235830;27;103781;-63
2022/11/28 08:59:31;;;;;;;17.27;15.87;;;;;;;21.03;35.74;95513.59;6237414;27;103660;-62
2022/11/28 09:02:34;;;;;;;17.67;16.27;;;;;;;21.03;35.93;95505.63;6231807;27;104938;-66
2022/11/28 09:05:37;;;;;;;17.57;16.10;;;;;;;21.09;35.83;95502.63;6230405;27;104004;-64
2022/11/28 09:08:40;;;;;;;19.20;17.40;;;;;;;21.12;35.99;95504.72;6235816;28;103417;-64
2022/11/28 09:11:43;;;;;;;17.33;15.93;;;;;;;21.07;36.29;95486.16;6236342;27;103784;-63
2022/11/28 09:14:48;;;;;;;17.93;16.43;;;;;;;21.13;36.39;95494.84;6225868;27;103750;-64
2022/11/28 09:17:51;;;;;;;17.80;16.30;;;;;;;21.11;36.50;95489.03;6235221;27;103756;-64
2022/11/28 09:20:58;;;;;;;15.33;14.03;;;;;;;21.11;36.33;95479.19;6236203;27;103833;-67
2022/11/28 09:24:01;;;;;;;15.27;14.07;;;;;;;21.12;36.30;95469.31;6235849;27;104313;-67
2022/11/28 09:27:04;;;;;;;15.33;14.03;;;;;;;21.19;36.54;95469.75;6225838;27;103842;-67
2022/11/28 09:30:10;;;;;;;15.50;14.10;;;;;;;21.16;36.42;95457.00;6236038;27;104157;-67
2022/11/28 09:33:13;;;;;;;16.63;15.23;;;;;;;21.24;36.10;95456.38;6235622;27;103879;-67
2022/11/28 09:36:18;;;;;;;15.33;14.13;;;;;;;21.25;36.54;95454.50;6235747;27;104486;-67
2022/11/28 09:39:22;;;;;;;15.73;14.53;;;;;;;21.27;36.20;95445.13;6222934;27;103718;-67
2022/11/28 09:42:30;;;;;;;16.43;15.03;;;;;;;21.24;36.37;95445.72;6235908;27;104117;-67
2022/11/28 09:45:35;;;;;;;15.23;14.03;;;;;;;21.28;36.18;95451.25;6234977;27;103861;-67
2022/11/28 09:48:44;;;;;;;16.13;14.80;;;;;;;21.19;36.59;95433.28;6227905;27;104786;-67
2022/11/28 09:51:53;;;;;;;16.70;15.10;;;;;;;21.30;36.65;95436.56;6234823;27;103781;-67
2022/11/28 09:55:05;;;;;;;15.97;14.67;;;;;;;21.25;36.49;95430.53;6235021;27;103767;-67
2022/11/28 09:58:15;;;;;;;15.67;14.37;;;;;;;21.18;36.72;95404.31;6235247;27;104219;-67
2022/11/28 10:01:32;;;;;;;15.13;13.93;;;;;;;21.27;36.55;95417.72;6224731;28;103585;-67
2022/11/28 10:04:41;;;;;;;16.10;14.80;;;;;;;21.24;36.32;95416.44;6235228;27;103922;-67
2022/11/28 10:08:02;;;;;;;15.60;14.30;;;;;;;21.29;36.20;95418.22;6234574;27;103663;-67
2022/11/28 10:11:14;;;;;;;14.50;13.30;;;;;;;21.28;36.52;95409.47;6229298;27;104102;-67
2022/11/28 10:14:45;;;;;;;14.00;12.90;;;;;;;21.28;36.30;95412.13;6232193;28;103487;-67
2022/11/28 10:18:01;;;;;;;13.73;12.53;;;;;;;21.25;36.67;95406.59;6234697;27;103853;-67
2022/11/28 10:21:21;;;;;;;14.20;13.00;;;;;;;21.23;36.34;95417.53;6235329;27;104426;-67
2022/11/28 10:24:34;;;;;;;13.10;11.90;;;;;;;21.21;36.86;95412.50;6224429;27;105175;-68
2022/11/28 10:27:39;;;;;;;12.13;11.13;;;;;;;21.18;36.61;95415.75;6235143;27;103925;-67
2022/11/28 10:30:48;;;;;;;12.77;11.77;;;;;;;21.20;36.22;95407.47;6234385;27;103738;-67
2022/11/28 10:33:57;;;;;;;13.30;12.30;;;;;;;21.25;36.65;95398.59;6230207;27;103751;-67
2022/11/28 10:37:04;;;;;;;11.67;10.80;;;;;;;21.24;36.79;95395.16;6230585;27;103733;-67
2022/11/28 10:40:17;;;;;;;12.23;11.33;;;;;;;21.23;36.67;95390.91;6234375;27;103866;-67
2022/11/28 10:43:31;;;;;;;10.83;9.93;;;;;;;21.29;36.57;95387.06;6234289;27;105034;-64
2022/11/28 10:46:47;;;;;;;11.30;10.30;;;;;;;21.26;36.47;95373.56;6224401;27;103914;-63
2022/11/28 10:50:00;;;;;;;10.77;9.87;;;;;;;21.30;36.50;95378.00;6234597;27;103919;-64
2022/11/28 10:53:11;;;;;;;11.33;10.40;;;;;;;21.29;36.22;95380.97;6239143;28;104528;-62
2022/11/28 10:56:28;;;;;;;10.50;9.70;;;;;;;21.28;36.66;95380.19;6234188;27;104041;-63
2022/11/28 10:59:40;;;;;;;10.70;9.70;;;;;;;21.26;36.29;95374.34;6233500;28;103561;-64
2022/11/28 11:02:47;;;;;;;10.33;9.53;;;;;;;21.22;36.41;95370.72;6238417;27;104025;-62
2022/11/28 11:05:52;;;;;;;9.57;8.77;;;;;;;21.23;36.36;95374.94;6238809;27;103893;-63
2022/11/28 11:08:55;;;;;;;9.30;8.60;;;;;;;21.20;35.92;95375.53;6226379;28;104189;-62
2022/11/28 11:12:00;;;;;;;9.90;9.10;;;;;;;21.23;36.48;95371.50;6238766;28;103591;-63
2022/11/28 11:15:16;;;;;;;9.37;8.67;;;;;;;21.21;36.14;95367.25;6236880;27;103791;-64
2022/11/28 11:18:23;;;;;;;9.93;9.13;;;;;;;21.22;35.86;95357.41;6238368;27;103860;-63
2022/11/28 11:21:27;;;;;;;9.47;8.67;;;;;;;21.20;35.88;95356.91;6229693;27;105595;-62
2022/11/28 11:24:31;;;;;;;8.50;7.80;;;;;;;21.21;35.98;95353.16;6237170;27;104062;-62
2022/11/28 11:27:36;;;;;;;9.23;8.50;;;;;;;21.20;36.00;95349.72;6238304;27;103923;-63
2022/11/28 11:30:41;;;;;;;8.47;7.87;;;;;;;21.20;36.21;95344.38;6232332;28;103591;-63
2022/11/28 11:33:45;;;;;;;8.37;7.67;;;;;;;21.19;36.13;95336.69;6233499;27;104070;-64
2022/11/28 11:36:51;;;;;;;7.70;7.10;;;;;;;21.18;35.87;95335.13;6238045;28;104953;-64
2022/11/28 11:39:55;;;;;;;7.80;7.20;;;;;;;21.23;36.13;95342.22;6238285;28;103549;-64
2022/11/28 11:43:00;;;;;;;8.37;7.77;;;;;;;21.22;35.95;95338.78;6227194;27;103728;-65
2022/11/28 11:46:05;;;;;;;7.67;7.07;;;;;;;21.23;35.88;95328.91;6236381;27;103973;-64
2022/11/28 11:49:28;;;;;;;7.43;6.83;;;;;;;21.22;35.84;95330.78;6237559;27;103696;-65
2022/11/28 11:52:32;;;;;;;7.70;7.10;;;;;;;21.20;35.72;95327.63;6237822;27;104118;-64
2022/11/28 11:55:46;;;;;;;7.63;7.03;;;;;;;21.21;35.69;95327.34;6226482;28;105135;-64
2022/11/28 11:58:54;;;;;;;7.20;6.60;;;;;;;21.23;35.45;95328.91;6237060;27;103941;-66
2022/11/28 12:02:01;;;;;;;6.97;6.47;;;;;;;21.19;35.47;95320.72;6237640;27;105116;-64
2022/11/28 12:05:10;;;;;;;7.30;6.70;;;;;;;21.15;35.39;95319.72;6227165;27;103880;-64
2022/11/28 12:08:19;;;;;;;6.77;6.27;;;;;;;21.14;35.46;95312.81;6237072;27;103785;-64
2022/11/28 12:11:26;;;;;;;7.40;6.80;;;;;;;21.16;35.74;95321.28;6237677;28;107128;-67
2022/11/28 12:14:32;;;;;;;6.60;6.00;;;;;;;21.19;35.42;95323.38;6237075;27;103293;-64
2022/11/28 12:17:48;;;;;;;6.67;6.17;;;;;;;21.16;35.72;95314.09;6225850;28;104224;-65
2022/11/28 12:21:12;;;;;;;6.50;6.00;;;;;;;21.18;35.44;95308.50;6236967;27;103331;-66
2022/11/28 12:24:24;;;;;;;7.07;6.47;;;;;;;21.19;35.33;95310.09;6236870;27;103972;-65
2022/11/28 12:27:42;;;;;;;6.67;6.17;;;;;;;21.14;35.37;95299.50;6231957;27;103883;-63
2022/11/28 12:31:02;;;;;;;6.47;6.03;;;;;;;21.15;35.14;95303.75;6235334;27;103679;-63
2022/11/28 12:34:14;;;;;;;6.43;5.93;;;;;;;21.16;35.57;95316.75;6236893;27;103765;-64
2022/11/28 12:37:32;;;;;;;5.77;5.37;;;;;;;21.12;35.49;95302.47;6236519;27;104404;-63
2022/11/28 12:41:11;;;;;;;6.10;5.60;;;;;;;21.10;35.32;95301.19;6226181;28;104847;-63
2022/11/28 12:44:22;;;;;;;6.13;5.63;;;;;;;21.15;35.23;95315.19;6236301;27;104041;-63
2022/11/28 12:47:40;;;;;;;5.53;5.13;;;;;;;21.15;35.26;95317.06;6237167;28;104072;-62
2022/11/28 12:50:48;;;;;;;6.03;5.53;;;;;;;21.15;35.04;95328.50;6224413;27;104133;-63
2022/11/28 12:54:05;;;;;;;5.13;4.73;;;;;;;21.15;35.14;95322.38;6236365;27;103516;-62
2022/11/28 12:57:18;;;;;;;5.43;5.03;;;;;;;21.15;35.19;95328.50;6237238;28;106146;-61
2022/11/28 13:00:24;;;;;;;5.43;5.03;;;;;;;21.09;35.15;95318.22;6235933;28;104848;-63
2022/11/28 13:03:41;;;;;;;5.17;4.77;;;;;;;21.15;35.53;95327.69;6226480;28;103595;-63
2022/11/28 13:06:53;;;;;;;5.70;5.20;;;;;;;21.14;35.10;95329.56;6235755;27;104069;-63
2022/11/28 13:10:04;;;;;;;5.70;5.20;;;;;;;21.13;35.31;95322.66;6235890;27;103822;-63
2022/11/28 13:13:13;;;;;;;4.60;4.30;;;;;;;21.12;35.35;95325.63;6225274;27;103753;-64
2022/11/28 13:16:23;;;;;;;5.40;5.00;;;;;;;21.14;35.01;95323.47;6235417;27;104009;-63
2022/11/28 13:19:38;;;;;;;4.87;4.47;;;;;;;21.16;35.28;95330.06;6236598;28;104042;-63
2022/11/28 13:22:57;;;;;;;5.00;4.60;;;;;;;21.12;35.22;95330.94;6234416;28;104014;-62
2022/11/28 13:26:09;;;;;;;4.43;4.13;;;;;;;21.12;35.32;95341.59;6224636;28;103695;-63
2022/11/28 13:29:23;;;;;;;4.40;4.10;;;;;;;21.12;35.14;95336.28;6235431;27;103903;-63
2022/11/28 13:32:35;;;;;;;4.77;4.37;;;;;;;21.12;35.22;95341.59;6235804;28;103831;-62
2022/11/28 13:35:42;;;;;;;4.70;4.40;;;;;;;21.10;34.76;95333.91;6230011;28;104802;-64
2022/11/28 13:38:54;;;;;;;4.80;4.40;;;;;;;21.13;34.95;95343.97;6233345;28;104291;-63
2022/11/28 13:42:28;;;;;;;4.60;4.30;;;;;;;21.11;34.78;95351.44;6235494;27;103785;-63
2022/11/28 13:45:53;;;;;;;4.63;4.33;;;;;;;21.12;35.03;95354.91;6235337;28;103399;-63
2022/11/28 13:49:02;;;;;;;4.40;4.10;;;;;;;21.09;34.92;95342.19;6225034;27;103567;-63
2022/11/28 13:52:33;;;;;;;4.80;4.40;;;;;;;21.08;34.97;95338.72;6234645;27;103860;-64
2022/11/28 13:55:39;;;;;;;4.10;3.80;;;;;;;21.13;35.01;95351.16;6235137;28;106694;-62
2022/11/28 13:58:49;;;;;;;4.60;4.30;;;;;;;21.09;34.96;95339.53;6224762;27;103952;-65
2022/11/28 14:01:58;;;;;;;4.53;4.23;;;;;;;21.11;34.79;95338.13;6235363;28;103777;-63
2022/11/28 14:05:03;;;;;;;4.40;4.10;;;;;;;21.12;34.62;95344.25;6235030;28;105251;-64
2022/11/28 14:08:07;;;;;;;3.70;3.47;;;;;;;21.10;34.70;95341.09;6235122;27;103777;-62
2022/11/28 14:11:39;;;;;;;4.07;3.77;;;;;;;21.11;34.75;95348.78;6224843;28;103440;-63
2022/11/28 14:15:17;;;;;;;3.97;3.67;;;;;;;21.06;34.85;95346.22;6234931;28;103570;-64
2022/11/28 14:18:38;;;;;;;4.70;4.30;;;;;;;21.09;35.04;95350.94;6221756;28;103515;-64
2022/11/28 14:22:17;;;;;;;4.20;3.90;;;;;;;21.09;34.94;95342.19;6223149;27;103982;-63
2022/11/28 14:25:24;;;;;;;3.90;3.60;;;;;;;21.07;34.61;95339.81;6236733;27;104001;-64
2022/11/28 14:28:35;;;;;;;3.40;3.20;;;;;;;21.07;35.06;95352.31;6238369;27;103789;-64